Time;durP1;ratioP1;P1;durP2;ratioP2;P2;SDS_P1;SDS_P2;PMS_P1;PMS_P2;Temp;Humidity;BMP_temperature;BMP_pressure;BME280_temperature;BME280_humidity;BME280_pressure;Samples;Min_cycle;Max_cycle;Signal;HPM_P1;HPM_P2
2021/06/20 00:00:10;;;;;;;3.93;3.63;;;;;;;24.44;54.68;99568.03;5083400;28;20429;-74
2021/06/20 00:02:36;;;;;;;4.20;3.80;;;;;;;24.44;55.60;99557.13;5086817;28;20472;-74
2021/06/20 00:05:04;;;;;;;4.47;4.07;;;;;;;24.44;56.28;99559.84;5086650;28;20502;-74
2021/06/20 00:07:31;;;;;;;3.80;3.40;;;;;;;24.41;57.21;99543.94;5083029;28;20902;-74
2021/06/20 00:09:58;;;;;;;5.37;3.50;;;;;;;24.40;57.08;99547.75;5083172;28;20644;-74
2021/06/20 00:12:25;;;;;;;4.30;3.70;;;;;;;24.51;57.40;99539.72;5081603;28;20813;-74
2021/06/20 00:14:52;;;;;;;4.43;3.40;;;;;;;24.39;57.33;99537.91;5083209;28;20538;-74
2021/06/20 00:17:20;;;;;;;4.50;4.10;;;;;;;24.53;58.77;99548.47;5082411;28;20476;-74
2021/06/20 00:19:46;;;;;;;5.50;3.93;;;;;;;24.62;59.04;99555.22;5083479;28;20864;-75
2021/06/20 00:22:13;;;;;;;3.50;3.20;;;;;;;24.66;57.77;99555.56;5082204;28;20671;-75
2021/06/20 00:24:40;;;;;;;4.17;3.60;;;;;;;24.53;59.63;99543.00;5082605;28;20484;-75
2021/06/20 00:27:07;;;;;;;3.63;3.33;;;;;;;24.69;59.02;99561.34;5081978;28;20480;-75
2021/06/20 00:29:34;;;;;;;5.40;4.13;;;;;;;24.57;59.63;99566.09;5083277;28;20436;-75
2021/06/20 00:32:00;;;;;;;4.00;3.70;;;;;;;24.52;59.56;99563.25;5081591;28;20483;-75
2021/06/20 00:34:28;;;;;;;4.10;3.80;;;;;;;24.58;60.15;99548.59;5102612;28;20534;-75
2021/06/20 00:36:55;;;;;;;4.10;3.70;;;;;;;24.49;58.99;99536.41;5091485;28;20504;-75
2021/06/20 00:39:21;;;;;;;5.60;4.00;;;;;;;24.38;59.86;99547.16;5083259;28;20461;-75
2021/06/20 00:41:48;;;;;;;4.63;4.07;;;;;;;24.46;60.92;99553.28;5080490;28;20472;-74
2021/06/20 00:44:15;;;;;;;5.87;3.83;;;;;;;24.17;62.06;99554.22;5082184;28;20969;-74
2021/06/20 00:46:41;;;;;;;4.47;4.10;;;;;;;24.36;60.95;99546.59;5081379;28;20579;-74
2021/06/20 00:49:08;;;;;;;4.03;3.73;;;;;;;24.27;60.35;99548.09;5082554;28;20491;-75
2021/06/20 00:51:36;;;;;;;4.40;4.00;;;;;;;24.39;61.58;99543.38;5081207;28;20500;-75
2021/06/20 00:54:03;;;;;;;4.53;4.13;;;;;;;24.24;61.96;99543.13;5082374;28;20464;-75
2021/06/20 00:56:30;;;;;;;6.27;3.90;;;;;;;24.36;61.25;99548.50;5080908;28;20482;-74
2021/06/20 00:59:02;;;;;;;4.37;4.03;;;;;;;24.23;61.45;99542.31;5082171;28;20938;-74
2021/06/20 01:01:30;;;;;;;5.67;4.00;;;;;;;24.28;62.14;99527.06;5081367;28;20483;-74
2021/06/20 01:03:57;;;;;;;4.30;4.00;;;;;;;24.19;62.82;99505.63;5081609;28;20481;-73
2021/06/20 01:06:24;;;;;;;6.93;5.17;;;;;;;24.05;62.77;99507.03;5080569;28;20579;-73
2021/06/20 01:08:52;;;;;;;4.80;4.40;;;;;;;23.77;65.04;99503.25;5081954;28;20914;-74
2021/06/20 01:11:20;;;;;;;7.23;5.10;;;;;;;23.47;65.59;99496.16;5080869;28;21077;-74
2021/06/20 01:13:48;;;;;;;6.73;4.77;;;;;;;23.28;65.24;99492.81;5081831;28;20488;-73
2021/06/20 01:16:15;;;;;;;5.70;5.20;;;;;;;22.79;69.84;99503.19;5080911;28;21024;-73
2021/06/20 01:18:42;;;;;;;5.50;5.00;;;;;;;22.83;69.89;99539.81;5092835;28;20790;-73
2021/06/20 01:21:09;;;;;;;5.40;4.90;;;;;;;22.56;69.92;99597.50;5080974;28;20479;-74
2021/06/20 01:23:37;;;;;;;5.13;4.63;;;;;;;22.37;69.15;99693.97;5081346;28;20469;-76
2021/06/20 01:26:04;;;;;;;6.40;5.57;;;;;;;22.40;68.67;99698.16;5080955;28;20535;-73
2021/06/20 01:28:41;;;;;;;7.50;4.60;;;;;;;22.17;69.02;99662.41;5081382;28;20525;-73
2021/06/20 01:31:11;;;;;;;4.73;3.47;;;;;;;22.07;70.04;99683.06;5080819;28;20475;-73
2021/06/20 01:33:38;;;;;;;5.20;3.40;;;;;;;21.90;71.67;99650.22;5092692;28;20454;-73
2021/06/20 01:36:06;;;;;;;4.70;2.50;;;;;;;21.71;71.10;99671.16;5080313;28;20943;-74
2021/06/20 01:38:32;;;;;;;8.10;2.60;;;;;;;21.40;72.57;99686.53;5081380;28;21068;-75
2021/06/20 01:41:01;;;;;;;7.33;2.93;;;;;;;21.27;74.01;99684.81;5079032;28;21168;-74
2021/06/20 01:43:28;;;;;;;10.00;3.63;;;;;;;21.23;74.71;99669.97;5079866;28;20448;-74
2021/06/20 01:45:54;;;;;;;6.57;3.20;;;;;;;21.45;74.64;99643.19;5080575;28;20559;-74
2021/06/20 01:48:21;;;;;;;6.60;2.97;;;;;;;21.52;73.85;99611.34;5084568;28;20535;-74
2021/06/20 01:50:48;;;;;;;4.57;2.43;;;;;;;21.50;74.02;99623.50;5079836;28;20511;-75
2021/06/20 01:53:16;;;;;;;5.63;2.60;;;;;;;21.54;73.95;99636.41;5081219;28;20480;-75
2021/06/20 01:55:45;;;;;;;5.13;2.30;;;;;;;21.71;73.56;99617.59;5079742;28;20527;-73
2021/06/20 01:58:15;;;;;;;4.53;2.37;;;;;;;21.78;74.05;99607.44;5081254;28;20453;-74
2021/06/20 02:00:44;;;;;;;6.00;2.90;;;;;;;21.53;74.98;99613.00;5080255;28;20480;-75
2021/06/20 02:03:11;;;;;;;5.20;2.60;;;;;;;21.38;75.39;99613.34;5089816;28;20474;-73
2021/06/20 02:05:39;;;;;;;5.07;2.60;;;;;;;21.23;77.10;99629.19;5089137;28;20484;-73
2021/06/20 02:08:06;;;;;;;6.50;2.43;;;;;;;21.16;76.99;99656.47;5081723;28;20445;-73
2021/06/20 02:10:33;;;;;;;6.87;2.87;;;;;;;21.21;77.01;99674.81;5079367;28;20529;-74
2021/06/20 02:13:00;;;;;;;3.83;2.80;;;;;;;21.17;77.52;99657.31;5080783;28;20536;-74
2021/06/20 02:15:28;;;;;;;7.37;2.70;;;;;;;20.92;78.17;99657.31;5080643;28;20516;-74
2021/06/20 02:17:54;;;;;;;6.20;2.00;;;;;;;20.98;78.17;99632.81;5088288;28;20471;-73
2021/06/20 02:20:21;;;;;;;3.73;2.40;;;;;;;21.03;77.82;99624.00;5098695;28;20483;-73
2021/06/20 02:22:51;;;;;;;4.10;2.13;;;;;;;21.06;77.95;99599.91;5080516;28;20520;-73
2021/06/20 02:25:17;;;;;;;2.17;1.93;;;;;;;21.05;78.58;99587.38;5080548;28;20468;-73
2021/06/20 02:27:45;;;;;;;6.03;2.40;;;;;;;21.25;77.90;99551.00;5081230;28;20460;-73
2021/06/20 02:30:12;;;;;;;6.37;3.40;;;;;;;21.18;78.28;99528.47;5080719;28;20452;-73
2021/06/20 02:32:41;;;;;;;7.50;3.23;;;;;;;21.05;78.50;99499.56;5084351;28;20490;-73
2021/06/20 02:35:10;;;;;;;6.73;2.60;;;;;;;21.06;78.46;99487.66;5092810;28;20639;-74
2021/06/20 02:37:37;;;;;;;3.20;2.20;;;;;;;21.09;78.55;99498.06;5081155;28;20475;-73
2021/06/20 02:40:06;;;;;;;7.67;2.80;;;;;;;21.20;78.72;99526.38;5079815;28;21011;-74
2021/06/20 02:42:32;;;;;;;4.43;2.60;;;;;;;21.48;77.55;99534.00;5078763;28;20468;-74
2021/06/20 02:44:59;;;;;;;3.27;2.40;;;;;;;21.58;77.04;99528.00;5080348;28;20512;-74
2021/06/20 02:47:26;;;;;;;4.00;2.10;;;;;;;21.47;76.66;99509.75;5079750;28;20578;-74
2021/06/20 02:49:54;;;;;;;4.10;2.60;;;;;;;21.49;77.08;99504.88;5080625;28;20476;-74
2021/06/20 02:52:20;;;;;;;4.73;2.53;;;;;;;21.06;78.52;99495.81;5080226;28;20481;-74
2021/06/20 02:54:50;;;;;;;3.47;3.00;;;;;;;21.01;78.81;99504.63;5073528;28;20669;-74
2021/06/20 02:57:18;;;;;;;5.60;3.07;;;;;;;21.11;78.81;99497.81;5091975;28;20469;-74
2021/06/20 02:59:45;;;;;;;7.20;3.63;;;;;;;21.23;78.67;99496.84;5095536;28;20464;-74
2021/06/20 03:02:11;;;;;;;5.57;3.03;;;;;;;21.17;79.01;99494.22;5079017;28;21057;-74
2021/06/20 03:04:38;;;;;;;4.83;3.40;;;;;;;21.08;78.95;99507.28;5083252;28;20506;-73
2021/06/20 03:07:06;;;;;;;4.53;2.80;;;;;;;20.91;80.11;99534.22;5102065;28;20475;-74
2021/06/20 03:09:34;;;;;;;4.47;3.00;;;;;;;20.67;81.22;99561.19;5093969;28;20502;-74
2021/06/20 03:12:01;;;;;;;7.20;3.70;;;;;;;20.55;81.21;99549.38;5083701;28;20574;-74
2021/06/20 03:14:28;;;;;;;5.83;3.10;;;;;;;20.60;80.70;99514.25;5084798;28;20887;-74
2021/06/20 03:16:55;;;;;;;7.70;2.90;;;;;;;20.72;80.93;99470.91;5084118;28;20511;-74
2021/06/20 03:19:22;;;;;;;4.20;2.80;;;;;;;20.73;80.62;99448.13;5084531;28;20485;-74
2021/06/20 03:21:48;;;;;;;7.23;3.83;;;;;;;20.73;80.62;99439.97;5084665;28;20482;-74
2021/06/20 03:24:16;;;;;;;6.63;4.43;;;;;;;20.67;80.71;99440.88;5084547;28;20477;-74
2021/06/20 03:26:43;;;;;;;6.60;3.67;;;;;;;20.60;80.55;99442.81;5084281;28;20494;-75
2021/06/20 03:29:10;;;;;;;7.60;3.77;;;;;;;20.46;81.48;99458.41;5085300;28;20436;-75
2021/06/20 03:31:36;;;;;;;11.50;4.23;;;;;;;20.69;80.87;99442.31;5083436;28;20519;-74
2021/06/20 03:34:03;;;;;;;6.93;4.07;;;;;;;20.75;80.64;99415.31;5084322;28;20480;-74
2021/06/20 03:36:30;;;;;;;6.60;4.10;;;;;;;20.64;80.50;99403.28;5084132;28;20492;-75
2021/06/20 03:38:57;;;;;;;8.70;4.50;;;;;;;20.80;79.84;99397.25;5085077;28;20452;-74
2021/06/20 03:41:25;;;;;;;5.83;3.57;;;;;;;20.67;80.21;99392.81;5083065;28;20492;-74
2021/06/20 03:43:53;;;;;;;7.50;3.37;;;;;;;20.66;80.10;99399.31;5084038;28;20969;-75
2021/06/20 03:46:19;;;;;;;5.77;3.63;;;;;;;20.78;80.49;99398.53;5083865;28;20480;-75
2021/06/20 03:48:46;;;;;;;7.37;4.13;;;;;;;20.66;80.39;99399.31;5084599;28;20848;-74
2021/06/20 03:51:13;;;;;;;8.10;3.53;;;;;;;20.74;80.18;99409.03;5084285;28;20495;-74
2021/06/20 03:53:40;;;;;;;10.07;4.43;;;;;;;21.00;80.20;99432.31;5087459;28;20926;-74
2021/06/20 03:56:07;;;;;;;8.20;3.77;;;;;;;20.93;79.71;99431.56;5093487;28;20852;-75
2021/06/20 03:58:35;;;;;;;10.13;3.77;;;;;;;20.91;79.62;99450.00;5083597;28;20421;-74
2021/06/20 04:01:01;;;;;;;10.70;4.87;;;;;;;20.95;79.64;99451.19;5082254;28;20512;-74
2021/06/20 04:03:28;;;;;;;10.17;4.53;;;;;;;21.10;79.88;99461.66;5082358;28;20536;-75
2021/06/20 04:05:55;;;;;;;7.20;4.30;;;;;;;21.22;78.35;99480.75;5082151;28;20594;-74
2021/06/20 04:08:21;;;;;;;8.77;4.13;;;;;;;21.29;77.81;99486.94;5084084;28;20432;-74
2021/06/20 04:10:48;;;;;;;7.13;3.70;;;;;;;21.08;78.45;99482.81;5098915;28;20472;-75
2021/06/20 04:13:15;;;;;;;7.70;4.30;;;;;;;21.14;78.18;99476.44;5083419;28;20452;-75
2021/06/20 04:15:43;;;;;;;8.47;4.33;;;;;;;20.78;78.40;99480.88;5082415;28;20490;-75
2021/06/20 04:18:10;;;;;;;6.50;3.40;;;;;;;20.77;79.10;99476.50;5081212;28;20484;-77
2021/06/20 04:20:37;;;;;;;5.33;3.33;;;;;;;20.61;79.15;99482.50;5082620;28;20487;-75
2021/06/20 04:23:03;;;;;;;5.80;3.20;;;;;;;20.62;78.65;99489.59;5082709;28;20516;-74
2021/06/20 04:25:30;;;;;;;6.63;2.73;;;;;;;20.70;78.64;99492.03;5082601;28;20913;-75
2021/06/20 04:27:57;;;;;;;5.07;2.27;;;;;;;20.49;78.85;99485.13;5080654;28;20838;-75
2021/06/20 04:30:24;;;;;;;4.50;2.77;;;;;;;20.76;79.03;99491.16;5081680;28;20445;-74
2021/06/20 04:32:53;;;;;;;3.43;2.63;;;;;;;20.55;78.83;99497.78;5081196;28;20983;-75
2021/06/20 04:35:20;;;;;;;5.53;2.20;;;;;;;20.95;77.51;99500.09;5062330;28;20497;-75
2021/06/20 04:37:47;;;;;;;4.07;2.40;;;;;;;21.06;77.05;99518.38;5080604;28;20460;-76
2021/06/20 04:40:17;;;;;;;4.97;2.00;;;;;;;21.00;77.06;99502.16;5080623;28;20449;-75
2021/06/20 04:42:46;;;;;;;5.63;2.40;;;;;;;21.16;76.63;99506.97;5082648;28;20540;-76
2021/06/20 04:45:13;;;;;;;4.17;2.27;;;;;;;21.27;75.50;99515.44;5080787;28;20460;-76
2021/06/20 04:47:42;;;;;;;5.83;2.73;;;;;;;21.30;76.48;99526.66;5081721;28;20488;-75
2021/06/20 04:50:12;;;;;;;4.13;2.90;;;;;;;21.45;75.94;99528.97;5072479;28;20572;-74
2021/06/20 04:52:41;;;;;;;5.07;2.27;;;;;;;21.83;74.41;99524.31;5078353;28;20540;-75
2021/06/20 04:55:09;;;;;;;4.53;2.60;;;;;;;21.71;74.61;99503.31;5079264;28;20452;-75
2021/06/20 04:57:36;;;;;;;3.97;1.90;;;;;;;21.59;75.31;99518.78;5082178;28;20516;-75
2021/06/20 05:00:04;;;;;;;3.73;2.50;;;;;;;21.71;75.93;99514.19;5081696;28;20547;-75
2021/06/20 05:02:30;;;;;;;7.77;2.10;;;;;;;21.84;74.69;99501.44;5083661;28;20499;-75
2021/06/20 05:04:57;;;;;;;5.80;2.60;;;;;;;21.88;73.89;99510.81;5082068;28;20508;-76
2021/06/20 05:07:25;;;;;;;5.73;3.23;;;;;;;21.95;74.41;99514.28;5081249;28;20580;-76
2021/06/20 05:09:52;;;;;;;5.27;2.93;;;;;;;21.96;71.65;99515.91;5082271;28;20866;-75
2021/06/20 05:12:18;;;;;;;9.23;3.70;;;;;;;21.80;73.21;99510.09;5080571;28;20502;-76
2021/06/20 05:14:47;;;;;;;7.27;2.90;;;;;;;22.26;71.86;99496.78;5081222;28;20491;-75
2021/06/20 05:17:16;;;;;;;10.53;2.80;;;;;;;22.54;70.77;99514.38;5080315;28;20541;-75
2021/06/20 05:19:42;;;;;;;9.40;3.17;;;;;;;22.69;70.52;99513.84;5061625;28;20529;-75
2021/06/20 05:22:10;;;;;;;6.23;3.23;;;;;;;22.53;70.36;99507.25;5076292;28;20496;-75
2021/06/20 05:24:39;;;;;;;8.23;3.73;;;;;;;22.45;71.09;99527.50;5081678;28;20459;-75
2021/06/20 05:27:06;;;;;;;5.93;3.50;;;;;;;22.75;69.43;99526.53;5075137;28;20516;-76
2021/06/20 05:29:33;;;;;;;5.97;2.83;;;;;;;23.22;68.15;99526.47;5081387;28;20476;-76
2021/06/20 05:32:00;;;;;;;5.83;3.40;;;;;;;24.24;64.95;99529.47;5080242;28;20502;-75
2021/06/20 05:34:27;;;;;;;6.43;3.50;;;;;;;24.08;64.80;99524.81;5080715;28;20464;-76
2021/06/20 05:36:53;;;;;;;6.03;3.10;;;;;;;24.57;63.43;99519.63;5075253;28;20472;-76
2021/06/20 05:39:20;;;;;;;6.13;3.43;;;;;;;25.46;60.71;99521.34;5079907;28;20452;-76
2021/06/20 05:41:48;;;;;;;3.60;2.70;;;;;;;25.60;59.64;99524.50;5093003;28;20499;-76
2021/06/20 05:44:15;;;;;;;7.87;3.17;;;;;;;26.77;57.32;99532.09;5080677;28;20452;-76
2021/06/20 05:46:42;;;;;;;6.70;3.20;;;;;;;27.65;52.94;99532.47;5080699;28;20500;-75
2021/06/20 05:49:08;;;;;;;8.67;3.10;;;;;;;26.95;55.20;99541.78;5080462;28;20527;-76
2021/06/20 05:51:35;;;;;;;12.00;3.90;;;;;;;26.64;56.54;99532.56;5075318;28;20503;-76
2021/06/20 05:54:01;;;;;;;8.37;3.83;;;;;;;28.58;51.19;99523.22;5075129;28;20448;-77
2021/06/20 05:56:29;;;;;;;5.50;2.77;;;;;;;29.89;46.56;99524.03;5073006;28;20495;-77
2021/06/20 05:58:57;;;;;;;6.47;3.73;;;;;;;28.82;49.50;99528.94;5068045;28;20522;-77
2021/06/20 06:01:24;;;;;;;5.77;3.00;;;;;;;29.71;47.78;99539.31;5076604;28;20500;-77
2021/06/20 06:03:50;;;;;;;6.80;2.87;;;;;;;30.07;45.79;99533.56;5079828;28;20452;-78
2021/06/20 06:06:17;;;;;;;6.27;3.77;;;;;;;30.71;44.70;99525.28;5080687;28;20505;-77
2021/06/20 06:08:44;;;;;;;13.77;4.07;;;;;;;29.31;48.13;99521.91;5081338;28;20433;-77
2021/06/20 06:11:10;;;;;;;5.03;3.17;;;;;;;28.41;49.69;99530.91;5080798;28;20827;-77
2021/06/20 06:13:37;;;;;;;7.23;3.57;;;;;;;29.66;47.49;99531.88;5077578;28;20455;-75
2021/06/20 06:16:05;;;;;;;7.10;4.30;;;;;;;29.58;46.69;99527.00;5067311;28;20522;-75
2021/06/20 06:18:32;;;;;;;11.60;3.53;;;;;;;27.74;51.38;99541.81;5081230;28;20460;-78
2021/06/20 06:20:59;;;;;;;5.67;3.43;;;;;;;27.29;51.97;99549.66;5080588;28;20502;-76
2021/06/20 06:23:25;;;;;;;10.10;3.50;;;;;;;28.21;49.69;99549.06;5063803;28;20457;-75
2021/06/20 06:25:52;;;;;;;7.03;4.27;;;;;;;29.74;46.85;99548.91;5080320;28;20480;-75
2021/06/20 06:28:19;;;;;;;7.63;3.13;;;;;;;28.62;49.07;99549.03;5077400;28;20956;-76
2021/06/20 06:30:45;;;;;;;6.77;3.60;;;;;;;28.80;47.09;99557.81;5080443;28;20486;-77
2021/06/20 06:33:13;;;;;;;7.63;3.80;;;;;;;27.90;50.06;99560.00;5079432;28;20814;-75
2021/06/20 06:35:40;;;;;;;8.80;3.60;;;;;;;28.81;47.92;99560.28;5079391;28;20479;-76
2021/06/20 06:38:07;;;;;;;3.80;3.10;;;;;;;29.12;47.04;99568.47;5080671;28;20459;-76
2021/06/20 06:40:35;;;;;;;9.07;3.63;;;;;;;27.10;51.20;99576.72;5079715;28;20815;-76
2021/06/20 06:43:02;;;;;;;5.53;2.93;;;;;;;27.20;51.14;99575.91;5070023;28;20449;-76
2021/06/20 06:45:28;;;;;;;9.30;3.60;;;;;;;25.34;56.43;99578.09;5082208;28;21042;-75
2021/06/20 06:47:55;;;;;;;7.00;3.60;;;;;;;25.27;56.94;99582.94;5084004;28;20484;-75
2021/06/20 06:50:23;;;;;;;5.73;3.50;;;;;;;24.93;58.93;99578.38;5084180;28;20481;-76
2021/06/20 06:52:50;;;;;;;6.40;3.90;;;;;;;23.85;61.05;99601.16;5084237;28;21022;-76
2021/06/20 06:55:17;;;;;;;8.00;3.27;;;;;;;23.87;60.76;99579.09;5084002;28;20509;-76
2021/06/20 06:57:44;;;;;;;5.00;3.80;;;;;;;23.35;62.46;99607.22;5083697;28;20470;-75
2021/06/20 07:00:12;;;;;;;7.07;4.20;;;;;;;23.37;63.60;99613.25;5082758;28;20953;-76
2021/06/20 07:02:38;;;;;;;11.20;3.90;;;;;;;23.82;61.35;99615.28;5082767;28;20456;-77
2021/06/20 07:05:06;;;;;;;9.13;3.70;;;;;;;24.48;60.21;99614.81;5083357;28;20825;-76
2021/06/20 07:07:34;;;;;;;3.80;3.30;;;;;;;25.33;57.61;99617.50;5083574;28;20511;-76
2021/06/20 07:10:01;;;;;;;6.30;3.20;;;;;;;25.10;57.85;99622.09;5084237;28;20444;-75
2021/06/20 07:12:28;;;;;;;5.43;3.50;;;;;;;25.26;55.97;99622.31;5083476;28;20465;-76
2021/06/20 07:14:55;;;;;;;6.80;3.10;;;;;;;25.32;57.14;99621.31;5084012;28;20448;-75
2021/06/20 07:17:22;;;;;;;4.43;3.13;;;;;;;25.85;55.04;99624.41;5082932;28;20483;-76
2021/06/20 07:19:49;;;;;;;6.60;3.00;;;;;;;26.54;52.86;99640.19;5080193;28;20510;-76
2021/06/20 07:22:15;;;;;;;5.53;3.40;;;;;;;26.78;52.32;99632.47;5070787;28;20483;-76
2021/06/20 07:24:44;;;;;;;9.27;2.70;;;;;;;27.99;48.17;99629.00;5080400;28;20456;-77
2021/06/20 07:27:13;;;;;;;4.97;3.00;;;;;;;30.06;43.89;99633.91;5083300;28;21064;-77
2021/06/20 07:29:41;;;;;;;4.00;2.30;;;;;;;30.59;42.24;99625.00;5083427;28;20451;-76
2021/06/20 07:32:08;;;;;;;4.40;2.37;;;;;;;28.66;46.60;99627.16;5081842;28;20501;-76
2021/06/20 07:34:35;;;;;;;4.90;2.83;;;;;;;28.65;46.05;99624.69;5083556;28;20484;-77
2021/06/20 07:37:02;;;;;;;4.10;2.47;;;;;;;29.73;43.57;99630.75;5077371;28;20526;-75
2021/06/20 07:39:30;;;;;;;4.70;2.60;;;;;;;30.21;41.94;99620.03;5082015;28;20476;-75
2021/06/20 07:41:58;;;;;;;4.10;2.50;;;;;;;29.99;42.82;99614.94;5079706;28;20475;-76
2021/06/20 07:44:25;;;;;;;3.40;2.30;;;;;;;30.32;42.58;99619.94;5075645;28;20698;-76
2021/06/20 07:46:51;;;;;;;3.50;2.17;;;;;;;30.49;41.69;99614.06;5082218;28;20530;-76
2021/06/20 07:49:18;;;;;;;5.10;2.40;;;;;;;30.82;39.73;99619.84;5081567;28;20483;-77
2021/06/20 07:51:46;;;;;;;7.30;2.60;;;;;;;31.32;39.29;99632.31;5082794;28;20506;-75
2021/06/20 07:54:12;;;;;;;5.97;2.27;;;;;;;30.79;40.04;99630.31;5081636;28;20826;-76
2021/06/20 07:56:39;;;;;;;3.93;2.20;;;;;;;32.38;37.38;99630.34;5081045;28;20476;-76
2021/06/20 07:59:07;;;;;;;3.00;2.40;;;;;;;32.81;35.30;99623.84;5081479;28;20472;-78
2021/06/20 08:01:34;;;;;;;2.77;2.20;;;;;;;30.46;39.13;99622.91;5080892;28;20471;-76
2021/06/20 08:04:00;;;;;;;3.20;2.37;;;;;;;29.04;42.05;99624.06;5081557;28;20471;-77
2021/06/20 08:06:27;;;;;;;2.67;2.03;;;;;;;28.68;42.89;99630.47;5082130;28;20517;-76
2021/06/20 08:08:56;;;;;;;3.83;2.47;;;;;;;28.71;43.44;99629.91;5083189;28;20476;-76
2021/06/20 08:11:22;;;;;;;8.53;2.63;;;;;;;30.49;40.66;99638.88;5082532;28;20472;-76
2021/06/20 08:13:49;;;;;;;4.83;2.90;;;;;;;30.63;39.24;99639.88;5081599;28;20456;-76
2021/06/20 08:16:18;;;;;;;5.60;2.63;;;;;;;29.68;40.60;99634.34;5074827;28;20465;-77
2021/06/20 08:18:44;;;;;;;2.50;2.30;;;;;;;27.95;45.17;99638.84;5073763;28;20488;-76
2021/06/20 08:21:11;;;;;;;3.67;2.23;;;;;;;27.96;45.54;99635.84;5081558;28;20503;-75
2021/06/20 08:23:38;;;;;;;3.60;2.90;;;;;;;27.12;46.03;99647.78;5079211;28;20527;-74
2021/06/20 08:26:05;;;;;;;4.00;2.70;;;;;;;27.85;44.74;99645.13;5068854;28;20746;-75
2021/06/20 08:28:33;;;;;;;4.23;2.83;;;;;;;28.03;44.55;99641.09;5081611;28;20502;-77
2021/06/20 08:31:00;;;;;;;6.63;2.50;;;;;;;30.95;39.99;99639.34;5081502;28;20494;-77
2021/06/20 08:33:28;;;;;;;3.73;2.47;;;;;;;32.32;36.83;99633.50;5080806;28;20484;-76
2021/06/20 08:35:55;;;;;;;3.00;2.67;;;;;;;32.52;36.03;99632.38;5081207;28;20476;-76
2021/06/20 08:38:21;;;;;;;4.90;2.60;;;;;;;30.25;38.09;99631.31;5081723;28;20440;-77
2021/06/20 08:40:48;;;;;;;5.10;2.90;;;;;;;29.98;39.14;99635.34;5080963;28;20492;-76
2021/06/20 08:43:15;;;;;;;4.03;2.50;;;;;;;29.99;40.38;99636.97;5071968;28;20484;-75
2021/06/20 08:45:42;;;;;;;3.63;2.60;;;;;;;30.19;39.67;99636.03;5080506;28;20473;-77
2021/06/20 08:48:11;;;;;;;3.43;2.60;;;;;;;29.74;40.61;99645.34;5080861;28;20492;-75
2021/06/20 08:50:39;;;;;;;4.43;3.13;;;;;;;29.23;41.29;99638.09;5080670;28;20468;-78
2021/06/20 08:53:06;;;;;;;3.50;3.20;;;;;;;29.58;40.71;99644.59;5080964;28;20444;-76
2021/06/20 08:55:33;;;;;;;4.03;2.70;;;;;;;31.07;38.37;99633.41;5077038;28;21029;-76
2021/06/20 08:58:09;;;;;;;2.83;2.53;;;;;;;31.57;37.02;99638.66;5067730;28;20452;-77
2021/06/20 09:00:36;;;;;;;7.67;3.23;;;;;;;30.71;39.49;99639.25;5080531;28;20499;-76
2021/06/20 09:03:03;;;;;;;4.63;3.10;;;;;;;30.76;39.31;99628.16;5069037;28;20476;-77
2021/06/20 09:05:30;;;;;;;5.27;3.23;;;;;;;30.85;39.26;99641.31;5079068;28;20453;-75
2021/06/20 09:07:58;;;;;;;2.97;2.67;;;;;;;32.34;36.44;99637.59;5082013;28;21106;-78
2021/06/20 09:10:26;;;;;;;5.63;3.00;;;;;;;32.21;37.14;99653.03;5080811;28;20491;-77
2021/06/20 09:12:55;;;;;;;4.17;3.10;;;;;;;31.51;38.08;99642.63;5081957;28;20658;-77
2021/06/20 09:15:24;;;;;;;6.03;2.97;;;;;;;29.07;41.94;99643.59;5064367;28;20958;-76
2021/06/20 09:17:53;;;;;;;3.53;2.97;;;;;;;30.82;39.20;99658.47;5075155;28;20457;-78
2021/06/20 09:20:31;;;;;;;4.30;2.60;;;;;;;31.66;37.53;99650.69;5079301;28;20483;-78
2021/06/20 09:23:00;;;;;;;3.37;2.90;;;;;;;31.00;38.36;99657.75;5074583;28;20452;-79
2021/06/20 09:25:28;;;;;;;5.60;2.87;;;;;;;31.25;37.65;99653.09;5079735;28;20508;-78
2021/06/20 09:27:56;;;;;;;2.70;2.50;;;;;;;30.26;40.02;99659.69;5081350;28;20546;-78
2021/06/20 09:30:25;;;;;;;6.37;2.80;;;;;;;30.08;39.35;99652.91;5080640;28;20456;-79
2021/06/20 09:32:57;;;;;;;5.20;2.97;;;;;;;29.47;41.01;99660.34;5080339;28;20977;-77
2021/06/20 09:35:24;;;;;;;6.60;2.70;;;;;;;29.22;41.58;99662.06;5080023;28;20529;-80
2021/06/20 09:37:51;;;;;;;3.30;2.83;;;;;;;29.35;40.91;99670.84;5081282;28;20962;-80
2021/06/20 09:40:21;;;;;;;4.37;2.70;;;;;;;29.28;40.98;99663.69;5079885;28;20441;-80
2021/06/20 09:42:49;;;;;;;3.70;2.63;;;;;;;29.46;39.90;99673.28;5071736;28;20457;-79
2021/06/20 09:45:26;;;;;;;3.20;2.90;;;;;;;30.74;37.94;99679.22;5063934;28;20475;-77
2021/06/20 09:47:54;;;;;;;4.17;2.30;;;;;;;30.57;37.90;99677.72;5065703;28;20503;-79
2021/06/20 09:50:34;;;;;;;2.40;2.20;;;;;;;29.23;40.68;99682.97;5080546;28;21007;-79
2021/06/20 09:53:01;;;;;;;4.30;2.60;;;;;;;29.08;40.27;99683.81;5075118;28;20452;-81
2021/06/20 09:55:29;;;;;;;3.63;2.37;;;;;;;29.77;37.81;99675.97;5066458;28;20471;-77
2021/06/20 09:57:59;;;;;;;3.00;2.37;;;;;;;29.51;37.96;99686.19;5081955;28;20842;-78
2021/06/20 10:00:26;;;;;;;3.00;1.90;;;;;;;30.91;36.42;99684.31;5079362;28;20467;-77
2021/06/20 10:02:52;;;;;;;2.30;2.10;;;;;;;30.45;35.30;99681.94;5067575;28;20483;-78
2021/06/20 10:05:19;;;;;;;3.07;2.27;;;;;;;29.72;36.23;99697.16;5076311;28;20487;-77
2021/06/20 10:07:46;;;;;;;3.50;2.10;;;;;;;29.41;36.31;99700.84;5081477;28;20484;-75
2021/06/20 10:10:12;;;;;;;2.20;1.83;;;;;;;30.08;35.73;99697.03;5078717;28;20445;-77
2021/06/20 10:12:41;;;;;;;2.10;1.90;;;;;;;30.39;35.73;99694.94;5081268;28;20473;-76
2021/06/20 10:15:12;;;;;;;2.37;2.10;;;;;;;31.12;35.04;99687.75;5080747;28;20993;-76
2021/06/20 10:17:41;;;;;;;3.37;2.40;;;;;;;29.26;36.32;99692.63;5079015;28;20448;-79
2021/06/20 10:20:12;;;;;;;4.27;2.40;;;;;;;29.13;36.81;99688.47;5080070;28;20763;-79
2021/06/20 10:22:40;;;;;;;4.03;1.90;;;;;;;29.47;36.71;99694.19;5080712;28;20452;-79
2021/06/20 10:25:09;;;;;;;3.63;2.07;;;;;;;28.59;37.16;99678.03;5079782;28;20464;-79
2021/06/20 10:27:38;;;;;;;3.13;1.87;;;;;;;29.45;37.22;99688.16;5064156;28;20537;-79
2021/06/20 10:30:08;;;;;;;2.43;2.17;;;;;;;30.25;36.10;99689.22;5080627;28;20540;-77
2021/06/20 10:32:38;;;;;;;2.37;1.60;;;;;;;30.48;34.75;99692.41;5077314;28;21027;-79
2021/06/20 10:35:09;;;;;;;3.50;1.30;;;;;;;30.94;33.51;99683.78;5079656;28;20456;-75
2021/06/20 10:37:37;;;;;;;2.33;1.80;;;;;;;29.91;34.77;99689.13;5079176;28;20487;-80
2021/06/20 10:40:06;;;;;;;2.80;2.13;;;;;;;30.51;34.11;99689.06;5079951;28;20456;-81
2021/06/20 10:42:37;;;;;;;1.93;1.60;;;;;;;30.86;33.12;99698.16;5077453;28;20502;-77
2021/06/20 10:45:07;;;;;;;3.67;2.10;;;;;;;30.82;34.00;99684.13;5080729;28;20517;-77
2021/06/20 10:47:35;;;;;;;3.10;1.90;;;;;;;29.77;35.67;99687.00;5079813;28;20468;-78
2021/06/20 10:50:05;;;;;;;3.20;2.00;;;;;;;29.24;35.99;99684.63;5073981;28;20477;-76
2021/06/20 10:52:32;;;;;;;3.03;1.70;;;;;;;28.42;37.01;99686.50;5069974;28;20869;-77
2021/06/20 10:55:13;;;;;;;2.90;2.07;;;;;;;30.65;34.69;99694.75;5080469;28;20456;-77
2021/06/20 10:57:48;;;;;;;3.00;2.13;;;;;;;30.12;33.64;99687.91;5078394;28;20774;-76
2021/06/20 11:00:27;;;;;;;3.00;1.63;;;;;;;29.88;34.16;99698.78;5073833;28;20519;-76
2021/06/20 11:02:55;;;;;;;1.63;1.40;;;;;;;29.87;34.60;99694.38;5057176;28;20460;-77
2021/06/20 11:05:23;;;;;;;2.40;1.50;;;;;;;30.20;33.36;99689.22;5070536;28;20492;-75
2021/06/20 11:07:50;;;;;;;3.30;1.70;;;;;;;29.27;34.84;99689.59;5071416;28;20485;-76
2021/06/20 11:10:23;;;;;;;3.57;1.47;;;;;;;30.59;34.08;99689.28;5065354;28;20453;-76
2021/06/20 11:12:55;;;;;;;3.60;1.90;;;;;;;30.39;33.36;99684.72;5067187;28;20496;-76
2021/06/20 11:15:27;;;;;;;2.30;1.90;;;;;;;28.08;37.09;99690.56;5075341;28;20483;-75
2021/06/20 11:18:05;;;;;;;3.20;2.00;;;;;;;29.10;36.39;99684.34;5078268;28;20452;-74
2021/06/20 11:20:31;;;;;;;3.10;1.60;;;;;;;30.44;35.67;99678.34;5067862;28;20547;-74
2021/06/20 11:22:58;;;;;;;5.30;2.40;;;;;;;30.98;34.99;99671.03;5063547;28;20457;-76
2021/06/20 11:25:25;;;;;;;3.17;1.83;;;;;;;31.07;33.96;99674.00;5074334;28;20473;-76
2021/06/20 11:27:52;;;;;;;2.20;1.50;;;;;;;29.54;34.19;99666.38;5075009;28;20437;-77
2021/06/20 11:30:20;;;;;;;5.93;1.83;;;;;;;29.94;35.36;99670.06;5061587;28;20973;-77
2021/06/20 11:32:48;;;;;;;2.63;1.70;;;;;;;30.97;35.28;99658.34;5072693;28;20498;-75
2021/06/20 11:35:16;;;;;;;3.00;1.63;;;;;;;30.42;35.26;99655.75;5079983;28;20491;-79